Impacts METAR Board
IDs:

KMSP - Minneapolis-St Paul, MN, US

Updated at: 0300 UTC 16 Aug 2018
Potential Impact None Slight Moderate High
Time 15/15Z 15/16Z 15/17Z 15/18Z 15/19Z 15/20Z 15/21Z 15/22Z 15/23Z 16/00Z 16/01Z 16/02Z 16/03Z
Temp77 81 83 85 86 88 87 85 86 84 82 80 78
Dewpt65 65 64 64 64 65 65 65 64 64 64 64 64
Altim29.95 29.95 29.94 29.94 29.93 29.92 29.91 29.91 29.90 29.90 29.91 29.93 29.94
VIS10 10 10 10 10 10 10 10 10 10 10 10 10
CIG-- -- -- -- -- -- -- -- -- -- -- -- --
CoverFEWFEWCLRCLRFEWSCTSCTSCTFEWFEWFEWFEWFEW
FltCatVFRVFRVFRVFRVFRVFRVFRVFRVFRVFRVFRVFRVFR
WX--------------------------
WDir20100310310206040201030300
WSpd7 8 5 6 6 7 7 7 4 8 7 5 3
WGst-- -- -- -- -- 16 -- 22 -- 15 -- -- --
Raw hourly METARs
KMSP 151453Z 02007KT 10SM FEW250 25/18 A2995 RMK AO2 SLP136 T02500183 58002
KMSP 151553Z 01008KT 10SM FEW250 27/18 A2995 RMK AO2 SLP136 T02720183
KMSP 151653Z VRB05KT 10SM CLR 28/18 A2994 RMK AO2 SLP134 T02830178
KMSP 151753Z 31006KT 10SM CLR 29/18 A2994 RMK AO2 SLP132 T02940178 10300 20200 58004
KMSP 151853Z 31006KT 10SM FEW050 30/18 A2993 RMK AO2 SLP130 T03000178
KMSP 151953Z 02007G16KT 10SM SCT047 31/18 A2992 RMK AO2 SLP125 T03110183
KMSP 152053Z 06007KT 030V090 10SM SCT047 31/18 A2991 RMK AO2 SLP122 T03060183 58010
KMSP 152153Z 04007G22KT 10SM SCT055 29/18 A2991 RMK AO2 SLP122 T02940183
KMSP 152253Z 02004KT 10SM FEW055 FEW300 30/18 A2990 RMK AO2 SLP120 CB DSNT SE T03000178
KMSP 152353Z 01008G15KT 10SM FEW300 29/18 A2990 RMK AO2 SLP120 CB DSNT SE T02890178 10317 20289 58003
KMSP 160053Z 03007KT 270V100 10SM FEW300 28/18 A2991 RMK AO2 SLP123 T02780178
KMSP 160153Z 03005KT 10SM FEW300 27/18 A2993 RMK AO2 SLP130 T02670178
KMSP 160253Z VRB03KT 10SM FEW300 26/18 A2994 RMK AO2 SLP134 T02560178 53015



Page loaded:  03:07 UTC  |   08:07 PM Pacific  |   09:07 PM Mountain  |   10:07 PM Central  |   11:07 PM Eastern

 

ADVISORIES

FORECASTS

FORECASTS

OBSERVATIONS

USER TOOLS

ABOUT US